Ameagle, West Virginia
Current Conditions -  °F | °C
As of 8:51 AM on Saturday 22 Nov 2014 (Local Time) from KBKW Reporting Station
Clear Clear  
Wind Chill: 36°   Ceiling: Unl
Heat Index: 36°   Visibility: 10mi
Dew Point: 17°   Wind: 0mph
Humidity: 46%   Direction: NA
Pressure: 30.38"   Gusts: NA
Location:  37.95°N, 81.42°W
Report Text: KBKW 221351Z AUTO 00000KT 10SM CLR 02/M08 A3038 RMK AO2 SLP316 T00221083
Loading
Personal Weather Stations






























Interactive Weather Map New forecast layout! Learn more

10-Day Weather Forecast

Advertisements
Track Severe Weather on mobile